createdAt,value
2022-08-24T00:02:21.252Z,99068.59
2022-08-24T00:07:27.396Z,99072.16
2022-08-24T00:12:31.593Z,99072.56
2022-08-24T00:17:34.978Z,99066.59
2022-08-24T00:22:39.145Z,99065.02
2022-08-24T00:27:42.451Z,99071.87
2022-08-24T00:32:47.060Z,99078.84
2022-08-24T00:37:51.896Z,99076.23
2022-08-24T00:42:56.601Z,99080.67
2022-08-24T00:48:03.595Z,99089.02
2022-08-24T00:53:13.717Z,99101.43
2022-08-24T00:58:22.219Z,99111.00
2022-08-24T01:03:28.057Z,99113.00
2022-08-24T01:08:31.074Z,99115.13
2022-08-24T01:13:35.028Z,99119.89
2022-08-24T01:18:51.695Z,99120.50
2022-08-24T01:24:00.869Z,99112.27
2022-08-24T01:29:11.751Z,99121.44
2022-08-24T01:34:14.963Z,99118.46
2022-08-24T01:39:29.387Z,99124.06
2022-08-24T01:44:35.012Z,99128.64
2022-08-24T01:49:41.781Z,99137.13
2022-08-24T01:54:45.928Z,99138.01
2022-08-24T01:59:48.969Z,99136.05
2022-08-24T02:04:52.152Z,99136.29
2022-08-24T02:09:55.469Z,99140.95
2022-08-24T02:15:01.038Z,99144.39
2022-08-24T02:20:05.580Z,99149.31
2022-08-24T02:25:08.847Z,99157.98
2022-08-24T02:30:18.014Z,99158.75
2022-08-24T02:35:22.564Z,99158.20
2022-08-24T02:40:25.949Z,99148.70
2022-08-24T02:45:29.254Z,99153.45
2022-08-24T02:50:32.278Z,99160.02
2022-08-24T02:55:36.488Z,99161.59
2022-08-24T03:00:40.768Z,99157.61
2022-08-24T03:05:43.742Z,99163.28
2022-08-24T03:10:46.638Z,99163.71
2022-08-24T03:15:50.084Z,99165.31
2022-08-24T03:20:57.962Z,99163.61
2022-08-24T03:26:02.250Z,99165.41
2022-08-24T03:31:06.023Z,99164.25
2022-08-24T03:36:13.949Z,99161.41
2022-08-24T03:41:17.787Z,99159.20
2022-08-24T03:46:27.378Z,99156.39
2022-08-24T03:51:30.793Z,99161.21
2022-08-24T03:56:34.333Z,99162.39
2022-08-24T04:01:38.621Z,99159.42
2022-08-24T04:06:44.615Z,99157.75
2022-08-24T04:11:47.909Z,99156.36
2022-08-24T04:16:57.581Z,99151.91
2022-08-24T04:22:05.997Z,99155.01
2022-08-24T04:27:09.087Z,99161.88
2022-08-24T04:32:15.725Z,99155.92
2022-08-24T04:37:18.545Z,99154.85
2022-08-24T04:42:31.723Z,99159.55
2022-08-24T04:47:37.213Z,99158.94
2022-08-24T04:52:40.540Z,99160.80
2022-08-24T04:57:43.681Z,99151.88
2022-08-24T05:02:47.202Z,99153.67
2022-08-24T05:07:53.470Z,99149.89
2022-08-24T05:12:59.673Z,99147.25
2022-08-24T05:18:03.205Z,99149.83
2022-08-24T05:23:06.259Z,99150.56
2022-08-24T05:28:09.804Z,99157.69
2022-08-24T05:33:14.036Z,99166.80
2022-08-24T05:38:16.988Z,99166.10
2022-08-24T05:43:19.856Z,99171.59
2022-08-24T05:48:24.024Z,99177.55
2022-08-24T05:53:36.662Z,99180.43
2022-08-24T05:58:40.834Z,99182.66
2022-08-24T06:03:44.777Z,99193.89
2022-08-24T06:08:52.072Z,99201.05
2022-08-24T06:13:59.930Z,99196.42
2022-08-24T06:19:06.222Z,99186.39
2022-08-24T06:24:09.795Z,99181.27
2022-08-24T06:29:13.034Z,99181.19
2022-08-24T06:34:20.259Z,99190.24
2022-08-24T06:39:24.230Z,99196.71
2022-08-24T06:44:29.759Z,99195.52
2022-08-24T06:49:39.859Z,99194.27
2022-08-24T06:54:43.230Z,99204.86
2022-08-24T06:59:46.469Z,99215.23
2022-08-24T07:04:49.878Z,99218.28
2022-08-24T07:10:11.651Z,99221.27
2022-08-24T07:15:16.306Z,99223.69
2022-08-24T07:20:22.057Z,99224.21
2022-08-24T07:25:46.201Z,99231.56
2022-08-24T07:30:52.330Z,99233.02
2022-08-24T07:35:56.272Z,99231.70
2022-08-24T07:41:38.214Z,99229.55
2022-08-24T07:46:24.092Z,99224.48
2022-08-24T07:51:27.548Z,99228.52
2022-08-24T07:56:31.923Z,99228.92
2022-08-24T08:01:37.749Z,99235.08
2022-08-24T08:06:44.056Z,99236.06
2022-08-24T08:11:47.188Z,99234.71
2022-08-24T08:16:50.496Z,99237.67
2022-08-24T08:22:12.945Z,99243.82
2022-08-24T08:27:38.764Z,99245.84
2022-08-24T08:32:41.848Z,99255.02
2022-08-24T08:37:45.015Z,99250.70
2022-08-24T08:43:10.638Z,99246.42
2022-08-24T08:48:40.009Z,99250.04
2022-08-24T08:54:20.928Z,99251.92
2022-08-24T08:59:50.137Z,99250.17
2022-08-24T09:05:00.356Z,99257.29
2022-08-24T09:10:32.248Z,99252.23
2022-08-24T09:15:38.142Z,99256.78
2022-08-24T09:21:09.390Z,99255.82
2022-08-24T09:26:29.955Z,99252.23
2022-08-24T09:32:01.006Z,99241.53
2022-08-24T09:37:09.986Z,99235.02
2022-08-24T09:42:25.678Z,99229.77
2022-08-24T09:47:56.592Z,99233.08
2022-08-24T09:53:30.212Z,99233.74
2022-08-24T09:58:50.586Z,99225.96
2022-08-24T10:04:14.813Z,99218.90
2022-08-24T10:09:39.153Z,99224.39
2022-08-24T10:15:09.883Z,99232.29
2022-08-24T10:20:35.777Z,99232.52
2022-08-24T10:25:57.499Z,99229.20
2022-08-24T10:31:12.467Z,99230.55
2022-08-24T10:36:34.728Z,99230.67
2022-08-24T10:42:11.499Z,99229.15
2022-08-24T10:47:29.219Z,99225.86
2022-08-24T10:52:54.164Z,99223.14
2022-08-24T10:58:15.701Z,99222.24
2022-08-24T11:03:27.660Z,99222.63
2022-08-24T11:08:35.207Z,99219.17
2022-08-24T11:13:52.500Z,99208.73
2022-08-24T11:18:57.940Z,99207.17
2022-08-24T11:24:07.205Z,99203.30
2022-08-24T11:29:10.126Z,99197.09
2022-08-24T11:34:33.742Z,99193.17
2022-08-24T11:39:38.002Z,99198.19
2022-08-24T11:44:51.039Z,99199.71
2022-08-24T11:50:19.853Z,99202.63
2022-08-24T11:55:32.410Z,99203.23
2022-08-24T12:00:55.459Z,99200.02
2022-08-24T12:06:33.939Z,99198.01
2022-08-24T12:12:04.201Z,99198.08
2022-08-24T12:17:23.268Z,99202.06
2022-08-24T12:22:28.516Z,99208.40
2022-08-24T12:27:37.848Z,99204.19
2022-08-24T12:33:00.925Z,99203.44
2022-08-24T12:38:25.732Z,99205.41
2022-08-24T12:43:38.108Z,99204.54
2022-08-24T12:48:43.920Z,99200.80
2022-08-24T12:54:08.314Z,99201.13
2022-08-24T12:59:26.268Z,99198.83
2022-08-24T13:04:51.233Z,99200.30
2022-08-24T13:09:57.137Z,99195.59
2022-08-24T13:15:28.618Z,99186.92
2022-08-24T13:20:37.459Z,99178.60
2022-08-24T13:26:01.411Z,99174.81
2022-08-24T13:31:22.383Z,99168.18
2022-08-24T13:36:31.186Z,99166.70
2022-08-24T13:41:55.662Z,99165.23
2022-08-24T13:47:07.768Z,99165.17
2022-08-24T13:52:22.526Z,99153.83
2022-08-24T13:57:37.072Z,99136.48
2022-08-24T14:03:12.261Z,99126.44
2022-08-24T14:08:59.635Z,99120.86
2022-08-24T14:14:03.426Z,99113.13
2022-08-24T14:19:24.674Z,99110.27
2022-08-24T14:24:46.291Z,99109.33
2022-08-24T14:29:49.782Z,99100.64
2022-08-24T14:35:16.120Z,99094.17
2022-08-24T14:40:38.124Z,99102.66
2022-08-24T14:45:56.449Z,99109.84
2022-08-24T14:51:05.491Z,99130.34
2022-08-24T14:56:08.493Z,99155.51
2022-08-24T15:01:39.025Z,99156.34
2022-08-24T15:06:58.893Z,99142.40
2022-08-24T15:12:20.711Z,99124.45
2022-08-24T15:17:48.286Z,99116.15
2022-08-24T15:23:04.251Z,99120.79
2022-08-24T15:28:14.985Z,99141.92
2022-08-24T15:33:19.809Z,99137.39
2022-08-24T15:38:31.643Z,99150.38
2022-08-24T15:43:39.353Z,99154.42
2022-08-24T15:48:47.940Z,99156.95
2022-08-24T15:53:51.077Z,99178.73
2022-08-24T15:58:54.147Z,99175.30
2022-08-24T16:04:00.847Z,99174.90
2022-08-24T16:09:22.474Z,99178.88
2022-08-24T16:14:34.020Z,99177.46
2022-08-24T16:19:38.368Z,99188.23
2022-08-24T16:24:42.346Z,99184.46
2022-08-24T16:29:50.305Z,99176.17
2022-08-24T16:35:15.253Z,99165.62
2022-08-24T16:40:19.362Z,99178.30
2022-08-24T16:45:23.717Z,99198.23
2022-08-24T16:50:27.198Z,99212.26
2022-08-24T16:55:30.611Z,99211.09
2022-08-24T17:00:33.798Z,99222.67
2022-08-24T17:05:38.163Z,99232.38
2022-08-24T17:10:43.999Z,99239.00
2022-08-24T17:15:50.749Z,99238.24
2022-08-24T17:20:56.441Z,99236.34
2022-08-24T17:26:00.276Z,99234.14
2022-08-24T17:31:03.466Z,99237.81
2022-08-24T17:36:07.770Z,99240.91
2022-08-24T17:41:18.621Z,99242.40
2022-08-24T17:46:22.585Z,99235.68
2022-08-24T17:51:25.607Z,99241.85
2022-08-24T17:56:32.557Z,99243.36
2022-08-24T18:01:38.509Z,99244.23
2022-08-24T18:06:41.377Z,99243.98
2022-08-24T18:11:44.392Z,99250.83
2022-08-24T18:16:50.181Z,99262.40
2022-08-24T18:21:57.429Z,99272.46
2022-08-24T18:27:10.784Z,99268.48
2022-08-24T18:32:14.162Z,99272.59
2022-08-24T18:37:17.468Z,99277.47
2022-08-24T18:42:27.471Z,99270.64
2022-08-24T18:47:30.602Z,99263.67
2022-08-24T18:52:35.041Z,99259.80
2022-08-24T18:57:37.965Z,99257.38
2022-08-24T19:02:41.956Z,99258.07
2022-08-24T19:07:48.937Z,99256.70
2022-08-24T19:12:57.861Z,99260.31
2022-08-24T19:18:00.959Z,99254.84
2022-08-24T19:23:10.920Z,99263.59
2022-08-24T19:28:14.206Z,99270.92
2022-08-24T19:33:27.162Z,99274.48
2022-08-24T19:38:30.667Z,99271.55
2022-08-24T19:43:33.661Z,99278.77
2022-08-24T19:48:39.808Z,99295.71
2022-08-24T19:53:43.182Z,99294.62
2022-08-24T19:58:52.104Z,99301.48
2022-08-24T20:03:55.092Z,99311.84
2022-08-24T20:08:58.941Z,99299.90
2022-08-24T20:14:02.870Z,99282.37
2022-08-24T20:19:06.289Z,99293.55
2022-08-24T20:24:11.448Z,99310.98
2022-08-24T20:29:14.426Z,99307.98
2022-08-24T20:34:19.156Z,99317.40
2022-08-24T20:39:25.429Z,99327.48
2022-08-24T20:44:28.313Z,99329.34
2022-08-24T20:49:32.896Z,99334.09
2022-08-24T20:54:39.620Z,99338.60
2022-08-24T20:59:43.194Z,99337.55
2022-08-24T21:04:46.112Z,99335.48
2022-08-24T21:09:49.080Z,99341.41
2022-08-24T21:14:56.265Z,99338.80
2022-08-24T21:19:59.522Z,99343.52
2022-08-24T21:25:06.915Z,99340.13
2022-08-24T21:30:13.117Z,99338.91
2022-08-24T21:35:16.127Z,99336.02
2022-08-24T21:40:20.345Z,99332.61
2022-08-24T21:45:24.210Z,99330.90
2022-08-24T21:50:27.106Z,99323.28
2022-08-24T21:55:30.019Z,99319.50
2022-08-24T22:00:35.300Z,99322.42
2022-08-24T22:05:38.281Z,99315.46
2022-08-24T22:10:41.580Z,99312.55
2022-08-24T22:15:45.081Z,99305.49
2022-08-24T22:20:48.132Z,99296.42
2022-08-24T22:25:53.571Z,99297.74
2022-08-24T22:30:56.807Z,99290.31
2022-08-24T22:35:59.693Z,99289.89
2022-08-24T22:41:02.815Z,99282.63
2022-08-24T22:46:05.674Z,99278.43
2022-08-24T22:51:10.454Z,99278.05
2022-08-24T22:56:25.036Z,99277.11
2022-08-24T23:01:32.796Z,99269.33
2022-08-24T23:06:35.825Z,99261.91
2022-08-24T23:11:40.186Z,99261.70
2022-08-24T23:16:45.132Z,99262.77
2022-08-24T23:21:48.070Z,99255.09
2022-08-24T23:26:51.352Z,99245.69
2022-08-24T23:31:54.534Z,99244.23
2022-08-24T23:36:57.448Z,99249.34
2022-08-24T23:42:01.139Z,99246.07
2022-08-24T23:47:04.338Z,99254.17
2022-08-24T23:52:07.409Z,99255.91
2022-08-24T23:57:10.484Z,99254.81
